Terminal Aerodrome Forecast
Issued by NWS Upton, NY

Home | Current Version | Previous Version | Text Only | Print | Product List | Glossary On
Versions: 1 2 3 4 5 6 7 8 9 10 11 12 13 14 15 16 17 18 19 20 21 22 23 24 25 26
000
FTUS41 KOKX 280700 AAA
TAFISP
TAF AMD
KISP 280714Z 2807/2906 18007KT 4SM -SHRA VCTS BKN007CB
     FM280800 18007KT 2SM TSRA SCT007 OVC025CB
      TEMPO 2808/2809 23020G30KT 1SM +TSRA BKN007CB
     FM281000 19010KT 6SM -SHRA SCT007 BKN040
     FM281500 21013G20KT P6SM SCT007 BKN040
     FM281800 22016G23KT P6SM SCT050
     FM282200 25014G22KT P6SM FEW050
     FM290100 28014G21KT P6SM FEW050 SCT250=

USA.gov is the U.S. government's official web portal to all federal, state and local government web resources and services.